Arlat Virtual - Aerolinea Argentina Latinoamericana Virtual


 INFORMACIÓN METAR y TAF
METAR FOR SARP
ADDS - METARS form results

(0427 UTC 25 September 2020)
Data provider http://aviationweather.gov/metar/data/
 
Forecast for: SARP (POSADAS AIRPORT , AR)
Text: TAF SARP 242300Z 2500/2524 05010KT 8000 NSC TX35/2518Z TN20/2510Z
Forecast period: 0000 UTC 25 September 2020 to 0000 UTC 26 September 2020
Forecast type: FROM: standard forecast or significant change
Winds: from the NE (50 degrees) at 12 MPH (10 knots; 5.1 m/s)
Visibility: 5 miles (8 km)
Ceiling: unknown
Clouds: missing
Weather: no significant weather forecast for this period

 MAPA DE AEROPUERTO

 INFORMACIÓN DE PISTA
Pista 1 Longitud 7218 ft Ancho 98 ft
Elevación 429 ft Umbral desplazado 0 ft Rumbo de pista 359
Pista 19 Longitud 7218 ft Ancho 98 ft
Elevación 376 ft Umbral desplazado 0 ft Rumbo de pista 179

 FRECUANCIAS DEL AEROPUERTO
Tipo TWR Nombre TWR/APP Frecuencia 120.1 MHZ

 RADIO AYUDAS DEL AEROPUERTO
Tipo VOR-DME Nombre Posadas Frecuencia 114900 KHZ